Time;durP1;ratioP1;P1;durP2;ratioP2;P2;SDS_P1;SDS_P2;PMS_P1;PMS_P2;Temp;Humidity;BMP_temperature;BMP_pressure;BME280_temperature;BME280_humidity;BME280_pressure;Samples;Min_cycle;Max_cycle;Signal;HPM_P1;HPM_P2
2022/06/11 00:01:47;;;;;;;;;;;;;;;;;;5010670;28;20131;-79
2022/06/11 00:04:19;;;;;;;11.07;8.30;;;;;;;;;;5015510;28;20550;-79
2022/06/11 00:06:49;;;;;;;8.77;7.90;;;;;;;;;;5016758;28;20041;-79
2022/06/11 00:09:16;;;;;;;9.30;8.38;;;;;;;;;;5034423;28;20041;-79
2022/06/11 00:11:42;;;;;;;9.52;8.73;;;;;;;;;;5015067;28;20568;-79
2022/06/11 00:14:09;;;;;;;9.40;8.50;;;;;;;;;;5016531;28;20038;-78
2022/06/11 00:16:36;;;;;;;13.48;9.00;;;;;;;;;;5021902;28;20532;-79
2022/06/11 00:19:03;;;;;;;8.98;8.07;;;;;;;;;;5011423;28;20025;-79
2022/06/11 00:21:32;;;;;;;10.90;9.18;;;;;;;;;;5015773;28;20047;-78
2022/06/11 00:23:58;;;;;;;9.55;8.70;;;;;;;;;;5013180;28;20025;-78
2022/06/11 00:26:23;;;;;;;11.32;8.45;;;;;;;;;;5010460;28;20045;-77
2022/06/11 00:28:50;;;;;;;9.07;8.27;;;;;;;;;;5017738;28;20041;-79
2022/06/11 00:31:16;;;;;;;9.57;8.63;;;;;;;;;;5017563;28;20038;-79
2022/06/11 00:33:42;;;;;;;10.00;9.00;;;;;;;;;;5016954;28;20040;-77
2022/06/11 00:36:10;;;;;;;9.38;8.38;;;;;;;;;;5011355;28;20030;-79
2022/06/11 00:38:36;;;;;;;11.43;8.52;;;;;;;;;;5016118;28;20050;-79
2022/06/11 00:41:04;;;;;;;9.98;8.82;;;;;;;;;;5017612;28;20049;-79
2022/06/11 00:43:30;;;;;;;9.57;8.65;;;;;;;;;;5010404;28;20033;-79
2022/06/11 00:46:21;;;;;;;10.77;8.55;;;;;;;;;;5018085;28;20095;-78
2022/06/11 00:48:47;;;;;;;12.20;9.25;;;;;;;;;;5013430;28;20060;-79
2022/06/11 00:51:17;;;;;;;9.55;8.55;;;;;;;;;;5012445;28;20037;-79
2022/06/11 00:53:54;;;;;;;10.23;8.52;;;;;;;;;;5014067;28;20038;-78
2022/06/11 00:56:23;;;;;;;9.25;8.45;;;;;;;;;;5016521;28;20092;-78
2022/06/11 00:58:52;;;;;;;9.27;8.40;;;;;;;;;;5012573;28;20505;-78
2022/06/11 01:01:21;;;;;;;9.70;8.75;;;;;;;;;;5011738;28;20422;-78
2022/06/11 01:03:48;;;;;;;10.02;8.80;;;;;;;;;;5014201;28;20045;-78
2022/06/11 01:06:32;;;;;;;9.10;8.30;;;;;;;;;;5016347;28;20044;-79
2022/06/11 01:09:24;;;;;;;9.52;8.45;;;;;;;;;;5019746;28;20037;-78
2022/06/11 01:11:56;;;;;;;9.18;8.20;;;;;;;;;;5018875;28;20033;-78
2022/06/11 01:14:30;;;;;;;9.60;8.63;;;;;;;;;;5020819;28;20378;-78
2022/06/11 01:17:07;;;;;;;8.98;8.30;;;;;;;;;;5015182;28;20041;-78
2022/06/11 01:19:54;;;;;;;9.80;8.43;;;;;;;;;;5020332;28;20110;-78
2022/06/11 01:22:42;;;;;;;9.10;8.27;;;;;;;;;;5014801;28;20030;-77
2022/06/11 01:25:32;;;;;;;11.13;8.43;;;;;;;;;;5012458;28;20778;-79
2022/06/11 01:27:58;;;;;;;14.38;8.88;;;;;;;;;;5011449;28;20057;-78
2022/06/11 01:30:31;;;;;;;9.32;8.35;;;;;;;;;;5017098;28;20042;-78
2022/06/11 01:33:21;;;;;;;8.95;8.15;;;;;;;;;;5017848;28;20531;-79
2022/06/11 01:35:55;;;;;;;9.50;8.23;;;;;;;;;;5014836;28;20048;-78
2022/06/11 01:38:45;;;;;;;9.15;8.18;;;;;;;;;;5020245;28;20069;-78
2022/06/11 01:41:21;;;;;;;10.25;8.50;;;;;;;;;;5021235;28;20108;-78
2022/06/11 01:43:49;;;;;;;9.15;8.25;;;;;;;;;;5011166;28;20505;-78
2022/06/11 01:46:26;;;;;;;9.25;8.38;;;;;;;;;;5019498;28;20080;-78
2022/06/11 01:49:03;;;;;;;10.00;8.90;;;;;;;;;;5016234;28;20037;-78
2022/06/11 01:51:45;;;;;;;9.50;8.60;;;;;;;;;;5015960;28;20600;-79
2022/06/11 01:54:21;;;;;;;9.93;9.00;;;;;;;;;;5013503;28;20026;-78
2022/06/11 01:57:20;;;;;;;9.40;8.70;;;;;;;;;;5016656;28;20041;-78
2022/06/11 02:00:08;;;;;;;11.48;8.43;;;;;;;;;;5013626;28;20077;-78
2022/06/11 02:02:55;;;;;;;9.55;8.65;;;;;;;;;;5016318;28;20497;-78
2022/06/11 02:05:30;;;;;;;9.50;8.60;;;;;;;;;;5012257;28;20030;-78
2022/06/11 02:08:20;;;;;;;9.48;8.77;;;;;;;;;;5014229;28;20077;-78
2022/06/11 02:11:13;;;;;;;9.68;8.85;;;;;;;;;;5011022;28;20116;-79
2022/06/11 02:13:48;;;;;;;10.75;9.65;;;;;;;;;;5008907;28;20033;-78
2022/06/11 02:16:34;;;;;;;10.20;9.27;;;;;;;;;;5011667;28;20472;-77
2022/06/11 02:19:08;;;;;;;9.88;8.93;;;;;;;;;;5012614;28;20995;-79
2022/06/11 02:21:38;;;;;;;10.93;9.85;;;;;;;;;;5008874;28;20032;-78
2022/06/11 02:24:11;;;;;;;10.40;9.40;;;;;;;;;;5008002;28;20029;-78
2022/06/11 02:26:42;;;;;;;10.27;8.93;;;;;;;;;;5009270;28;20582;-78
2022/06/11 02:29:09;;;;;;;9.65;8.82;;;;;;;;;;5016548;28;20042;-78
2022/06/11 02:31:43;;;;;;;11.65;9.05;;;;;;;;;;5017073;28;20034;-77
2022/06/11 02:34:10;;;;;;;10.30;8.85;;;;;;;;;;5013728;28;20033;-77
2022/06/11 02:36:47;;;;;;;11.23;8.90;;;;;;;;;;5016502;28;20047;-78
2022/06/11 02:39:13;;;;;;;9.85;8.85;;;;;;;;;;5017786;28;20033;-77
2022/06/11 02:41:39;;;;;;;10.57;9.55;;;;;;;;;;5008965;28;20117;-78
2022/06/11 02:44:04;;;;;;;13.73;9.07;;;;;;;;;;5018820;28;20073;-77
2022/06/11 02:46:45;;;;;;;10.02;8.98;;;;;;;;;;5022206;28;20149;-78
2022/06/11 02:49:23;;;;;;;12.70;9.55;;;;;;;;;;5017815;28;20038;-77
2022/06/11 02:51:52;;;;;;;12.65;9.70;;;;;;;;;;5023970;28;20033;-79
2022/06/11 02:54:19;;;;;;;10.23;9.30;;;;;;;;;;5012912;28;20091;-78
2022/06/11 02:56:45;;;;;;;9.88;8.70;;;;;;;;;;5018723;28;20351;-78
2022/06/11 02:59:11;;;;;;;13.48;8.90;;;;;;;;;;5012471;28;20109;-78
2022/06/11 03:01:38;;;;;;;10.77;9.38;;;;;;;;;;5011231;28;20065;-78
2022/06/11 03:04:05;;;;;;;11.30;8.93;;;;;;;;;;5012239;28;20030;-78
2022/06/11 03:06:31;;;;;;;10.02;9.13;;;;;;;;;;5011341;28;20042;-77
2022/06/11 03:08:58;;;;;;;11.23;8.70;;;;;;;;;;5008976;28;20045;-77
2022/06/11 03:11:24;;;;;;;10.00;8.90;;;;;;;;;;5010072;28;20366;-78
2022/06/11 03:13:50;;;;;;;9.23;8.32;;;;;;;;;;5016470;28;20164;-77
2022/06/11 03:16:15;;;;;;;9.35;8.50;;;;;;;;;;5009855;28;20030;-77
2022/06/11 03:18:41;;;;;;;9.73;8.82;;;;;;;;;;5006277;28;20033;-76
2022/06/11 03:21:07;;;;;;;9.45;8.50;;;;;;;;;;5009066;28;20038;-76
2022/06/11 03:23:34;;;;;;;9.25;8.30;;;;;;;;;;5017906;28;20114;-77
2022/06/11 03:26:00;;;;;;;9.25;8.45;;;;;;;;;;5024627;28;20037;-77
2022/06/11 03:28:28;;;;;;;10.57;8.88;;;;;;;;;;5021914;28;20042;-77
2022/06/11 03:30:55;;;;;;;10.40;9.40;;;;;;;;;;5012971;28;20044;-77
2022/06/11 03:33:22;;;;;;;11.93;9.07;;;;;;;;;;5010600;28;20063;-78
2022/06/11 03:35:49;;;;;;;9.80;8.90;;;;;;;;;;5008110;28;20038;-78
2022/06/11 03:38:16;;;;;;;12.25;8.88;;;;;;;;;;5010114;28;20038;-77
2022/06/11 03:40:42;;;;;;;11.50;9.40;;;;;;;;;;5015100;28;20072;-77
2022/06/11 03:43:09;;;;;;;10.75;9.45;;;;;;;;;;5009902;28;20036;-77
2022/06/11 03:45:34;;;;;;;10.45;9.07;;;;;;;;;;5008101;28;20149;-77
2022/06/11 03:48:00;;;;;;;9.82;8.85;;;;;;;;;;5013082;28;20104;-77
2022/06/11 03:50:31;;;;;;;9.52;8.73;;;;;;;;;;5012753;28;20065;-77
2022/06/11 03:52:57;;;;;;;10.00;8.85;;;;;;;;;;5011647;28;20045;-77
2022/06/11 03:55:24;;;;;;;9.80;8.90;;;;;;;;;;5014271;28;20105;-77
2022/06/11 03:57:51;;;;;;;8.95;8.15;;;;;;;;;;5013258;28;20092;-79
2022/06/11 04:01:14;;;;;;;9.38;8.57;;;;;;;;;;5009053;28;20040;-77
2022/06/11 04:03:06;;;;;;;8.88;8.18;;;;;;;;;;5011990;28;20036;-77
2022/06/11 04:05:32;;;;;;;10.27;8.60;;;;;;;;;;5012515;28;20030;-77
2022/06/11 04:07:58;;;;;;;9.15;8.35;;;;;;;;;;5009402;28;20038;-77
2022/06/11 04:10:24;;;;;;;9.38;8.50;;;;;;;;;;5007186;28;20478;-77
2022/06/11 04:12:50;;;;;;;9.90;8.13;;;;;;;;;;5006627;28;20030;-77
2022/06/11 04:15:16;;;;;;;8.48;7.78;;;;;;;;;;5012183;28;20030;-77
2022/06/11 04:17:42;;;;;;;8.45;7.65;;;;;;;;;;5010153;28;20050;-77
2022/06/11 04:20:08;;;;;;;8.68;7.88;;;;;;;;;;5009498;28;20485;-77
2022/06/11 04:22:33;;;;;;;8.43;7.63;;;;;;;;;;4998762;28;20041;-77
2022/06/11 04:24:59;;;;;;;8.02;7.25;;;;;;;;;;5005776;28;20041;-77
2022/06/11 04:27:25;;;;;;;7.85;7.05;;;;;;;;;;5015019;28;20025;-78
2022/06/11 04:29:54;;;;;;;7.68;7.10;;;;;;;;;;5012967;28;20493;-78
2022/06/11 04:32:20;;;;;;;;;;;;;;;;;;5010097;28;20671;-79
2022/06/11 04:34:48;;;;;;;8.30;7.60;;;;;;;;;;5014248;28;20658;-79
2022/06/11 04:37:17;;;;;;;8.20;6.90;;;;;;;;;;5016509;28;20041;-79
2022/06/11 04:39:48;;;;;;;8.50;6.85;;;;;;;;;;5013760;28;20045;-79
2022/06/11 04:42:15;;;;;;;7.10;6.60;;;;;;;;;;5017371;28;20477;-79
2022/06/11 04:44:43;;;;;;;7.80;7.20;;;;;;;;;;5018063;28;20045;-79
2022/06/11 04:47:10;;;;;;;8.40;7.70;;;;;;;;;;5013538;28;20164;-79
2022/06/11 04:49:37;;;;;;;8.32;7.45;;;;;;;;;;5017346;28;20056;-79
2022/06/11 04:52:04;;;;;;;8.68;7.68;;;;;;;;;;5018547;28;20042;-79
2022/06/11 04:54:30;;;;;;;8.20;7.60;;;;;;;;;;5020044;28;20056;-79
2022/06/11 04:56:56;;;;;;;8.23;7.32;;;;;;;;;;5014181;28;20069;-79
2022/06/11 04:59:22;;;;;;;8.80;7.25;;;;;;;;;;5011781;28;20030;-79
2022/06/11 05:01:47;;;;;;;8.25;7.53;;;;;;;;;;5020198;28;20511;-79
2022/06/11 05:04:14;;;;;;;7.95;7.00;;;;;;;;;;5021962;28;20041;-78
2022/06/11 05:06:43;;;;;;;7.53;6.90;;;;;;;;;;5016672;28;20037;-79
2022/06/11 05:09:12;;;;;;;7.40;6.85;;;;;;;;;;5018053;28;20600;-79
2022/06/11 05:11:38;;;;;;;;;;;;;;;;;;5017561;28;20045;-78
2022/06/11 05:14:04;;;;;;;8.38;7.20;;;;;;;;;;5018847;28;19924;-78
2022/06/11 05:16:30;;;;;;;7.35;6.75;;;;;;;;;;5016413;28;20076;-78
2022/06/11 05:18:56;;;;;;;7.57;7.05;;;;;;;;;;5017670;28;20025;-78
2022/06/11 05:21:23;;;;;;;7.55;6.85;;;;;;;;;;5018066;28;20040;-78
2022/06/11 05:23:48;;;;;;;8.50;7.00;;;;;;;;;;5014239;28;20060;-75
2022/06/11 05:26:18;;;;;;;7.88;7.10;;;;;;;;;;5012355;28;20061;-75
2022/06/11 05:28:44;;;;;;;7.80;7.13;;;;;;;;;;5013637;28;20037;-76
2022/06/11 05:31:10;;;;;;;7.70;7.00;;;;;;;;;;5010081;28;20041;-74
2022/06/11 05:33:37;;;;;;;7.05;6.53;;;;;;;;;;5007981;28;20026;-76
2022/06/11 05:36:04;;;;;;;7.47;6.80;;;;;;;;;;5019321;28;20694;-76
2022/06/11 05:38:30;;;;;;;7.57;6.80;;;;;;;;;;5010715;28;20034;-76
2022/06/11 05:40:56;;;;;;;7.88;6.80;;;;;;;;;;5010374;28;20048;-76
2022/06/11 05:43:23;;;;;;;7.22;6.63;;;;;;;;;;5015084;28;20038;-76
2022/06/11 05:45:57;;;;;;;7.10;6.53;;;;;;;;;;5012217;28;20065;-76
2022/06/11 05:48:28;;;;;;;7.13;6.43;;;;;;;;;;5020168;28;20116;-76
2022/06/11 05:50:56;;;;;;;7.18;6.50;;;;;;;;;;5011779;28;20038;-75
2022/06/11 05:53:24;;;;;;;8.02;6.40;;;;;;;;;;5012656;28;20037;-75
2022/06/11 05:55:51;;;;;;;6.80;6.30;;;;;;;;;;5013981;28;20038;-76
2022/06/11 05:58:31;;;;;;;6.80;6.20;;;;;;;;;;5013953;28;20108;-75
2022/06/11 06:00:57;;;;;;;7.30;6.32;;;;;;;;;;5012026;28;20083;-76
2022/06/11 06:03:22;;;;;;;7.05;5.88;;;;;;;;;;5018472;28;20030;-75
2022/06/11 06:05:48;;;;;;;7.07;6.55;;;;;;;;;;5016394;28;20110;-76
2022/06/11 06:08:14;;;;;;;8.07;6.22;;;;;;;;;;5018379;28;20064;-76
2022/06/11 06:10:40;;;;;;;6.90;6.22;;;;;;;;;;5010841;28;20133;-76
2022/06/11 06:13:45;;;;;;;6.45;6.05;;;;;;;;;;5013911;28;20113;-76
2022/06/11 06:15:52;;;;;;;7.13;6.28;;;;;;;;;;5010666;28;20058;-76
2022/06/11 06:18:19;;;;;;;7.30;5.80;;;;;;;;;;5012347;28;20113;-76
2022/06/11 06:20:45;;;;;;;6.43;5.80;;;;;;;;;;5009711;28;20406;-76
2022/06/11 06:23:10;;;;;;;6.25;5.80;;;;;;;;;;5009073;28;20056;-76
2022/06/11 06:25:36;;;;;;;6.32;5.82;;;;;;;;;;5015423;28;20601;-76
2022/06/11 06:28:01;;;;;;;5.75;5.35;;;;;;;;;;5009850;28;20057;-76
2022/06/11 06:30:27;;;;;;;6.50;6.00;;;;;;;;;;5013780;28;20049;-76
2022/06/11 06:32:53;;;;;;;7.47;5.93;;;;;;;;;;5021901;28;20540;-75
2022/06/11 06:35:18;;;;;;;6.63;5.68;;;;;;;;;;5017618;28;20034;-76
2022/06/11 06:37:44;;;;;;;9.48;5.90;;;;;;;;;;5007793;28;20042;-76
2022/06/11 06:40:10;;;;;;;7.47;5.32;;;;;;;;;;5011773;28;20113;-75
2022/06/11 06:42:36;;;;;;;7.65;5.43;;;;;;;;;;5013599;28;20032;-76
2022/06/11 06:45:02;;;;;;;6.22;5.72;;;;;;;;;;5009495;28;20042;-76
2022/06/11 06:47:27;;;;;;;8.50;6.00;;;;;;;;;;5011883;28;20030;-76
2022/06/11 06:49:54;;;;;;;5.47;5.03;;;;;;;;;;5008977;28;20099;-75
2022/06/11 06:52:20;;;;;;;6.07;5.22;;;;;;;;;;5013633;28;20161;-75
2022/06/11 06:54:46;;;;;;;5.78;5.28;;;;;;;;;;5009679;28;20165;-76
2022/06/11 06:57:12;;;;;;;5.95;5.40;;;;;;;;;;5011010;28;20128;-76
2022/06/11 06:59:38;;;;;;;7.05;5.15;;;;;;;;;;5014192;28;20041;-75
2022/06/11 07:02:03;;;;;;;5.93;5.50;;;;;;;;;;5015384;28;20588;-75
2022/06/11 07:04:29;;;;;;;8.45;5.22;;;;;;;;;;5005878;28;20575;-76
2022/06/11 07:06:55;;;;;;;7.53;5.28;;;;;;;;;;5008866;28;20512;-75
2022/06/11 07:09:21;;;;;;;6.32;5.72;;;;;;;;;;5011445;28;20516;-75
2022/06/11 07:11:46;;;;;;;5.90;5.10;;;;;;;;;;5011802;28;20025;-75
2022/06/11 07:14:12;;;;;;;5.57;5.15;;;;;;;;;;5010724;28;20049;-76
2022/06/11 07:16:44;;;;;;;5.38;4.97;;;;;;;;;;5008298;28;20037;-72
2022/06/11 07:19:15;;;;;;;5.65;5.22;;;;;;;;;;5012614;28;20033;-71
2022/06/11 07:21:45;;;;;;;5.32;4.93;;;;;;;;;;5006827;28;20038;-71
2022/06/11 07:24:16;;;;;;;5.57;5.07;;;;;;;;;;5009132;28;20026;-72
2022/06/11 07:26:46;;;;;;;5.85;5.22;;;;;;;;;;5011338;28;20097;-71
2022/06/11 07:29:25;;;;;;;5.90;5.25;;;;;;;;;;5006562;28;20596;-72
2022/06/11 07:31:55;;;;;;;5.72;5.28;;;;;;;;;;5005333;28;20072;-72
2022/06/11 07:34:20;;;;;;;5.90;5.30;;;;;;;;;;5009620;28;20030;-71
2022/06/11 07:36:46;;;;;;;5.70;5.22;;;;;;;;;;5010897;28;20049;-72
2022/06/11 07:39:12;;;;;;;5.93;5.30;;;;;;;;;;5007908;28;20040;-72
2022/06/11 07:41:37;;;;;;;6.18;5.25;;;;;;;;;;5009459;28;20049;-71
2022/06/11 07:44:03;;;;;;;5.20;4.80;;;;;;;;;;5009786;28;20030;-70
2022/06/11 07:46:29;;;;;;;5.20;4.80;;;;;;;;;;5008527;28;20045;-71
2022/06/11 07:48:55;;;;;;;5.15;4.75;;;;;;;;;;5007261;28;20038;-72
2022/06/11 07:51:20;;;;;;;5.82;4.65;;;;;;;;;;5009953;28;20053;-72
2022/06/11 07:53:46;;;;;;;7.80;5.20;;;;;;;;;;5008787;28;20584;-71
2022/06/11 07:56:13;;;;;;;5.60;5.10;;;;;;;;;;5006840;28;20030;-72
2022/06/11 07:58:38;;;;;;;5.97;4.85;;;;;;;;;;5007758;28;20042;-72
2022/06/11 08:01:05;;;;;;;7.18;4.72;;;;;;;;;;5012358;28;20037;-71
2022/06/11 08:03:32;;;;;;;5.88;4.90;;;;;;;;;;5007387;28;20485;-72
2022/06/11 08:05:59;;;;;;;5.47;4.78;;;;;;;;;;5005102;28;20041;-71
2022/06/11 08:08:25;;;;;;;5.45;4.95;;;;;;;;;;5014436;28;20133;-71
2022/06/11 08:10:51;;;;;;;5.80;4.80;;;;;;;;;;5008082;28;20125;-72
2022/06/11 08:13:17;;;;;;;5.47;4.30;;;;;;;;;;5009770;28;20037;-72
2022/06/11 08:15:45;;;;;;;5.30;4.80;;;;;;;;;;5007266;28;20042;-71
2022/06/11 08:18:11;;;;;;;4.40;4.10;;;;;;;;;;5012424;28;20030;-73
2022/06/11 08:20:37;;;;;;;7.18;5.00;;;;;;;;;;5010766;28;20328;-71
2022/06/11 08:23:04;;;;;;;6.00;4.32;;;;;;;;;;5007802;28;20080;-72
2022/06/11 08:25:30;;;;;;;4.80;4.40;;;;;;;;;;5007059;28;20055;-72
2022/06/11 08:27:56;;;;;;;5.03;4.18;;;;;;;;;;5011705;28;20116;-71
2022/06/11 08:30:24;;;;;;;5.53;4.15;;;;;;;;;;5007085;28;20064;-71
2022/06/11 08:32:50;;;;;;;6.35;4.43;;;;;;;;;;5008246;28;20038;-74
2022/06/11 08:35:18;;;;;;;4.50;4.10;;;;;;;;;;5008854;28;20032;-71
2022/06/11 08:37:44;;;;;;;4.47;4.07;;;;;;;;;;5012974;28;20038;-72
2022/06/11 08:40:32;;;;;;;6.88;3.92;;;;;;;;;;5008324;28;20038;-71
2022/06/11 08:43:28;;;;;;;4.30;3.90;;;;;;;;;;5008174;28;20033;-71
2022/06/11 08:45:54;;;;;;;4.40;4.10;;;;;;;;;;5009597;28;20062;-71
2022/06/11 08:48:25;;;;;;;3.90;3.60;;;;;;;;;;5006945;28;20064;-73
2022/06/11 08:51:02;;;;;;;4.45;4.05;;;;;;;;;;5008799;28;20033;-72
2022/06/11 08:53:29;;;;;;;4.57;4.20;;;;;;;;;;5006853;28;20136;-72
2022/06/11 08:55:56;;;;;;;4.57;3.85;;;;;;;;;;5011511;28;20041;-73
2022/06/11 08:58:39;;;;;;;4.72;4.15;;;;;;;;;;5006412;28;20486;-73
2022/06/11 09:01:19;;;;;;;4.32;3.90;;;;;;;;;;5007894;28;20110;-73
2022/06/11 09:03:54;;;;;;;6.25;3.72;;;;;;;;;;5006580;28;20033;-72
2022/06/11 09:06:25;;;;;;;4.10;3.80;;;;;;;;;;5008971;28;20038;-73
2022/06/11 09:09:19;;;;;;;4.78;3.92;;;;;;;;;;5007360;28;20037;-71
2022/06/11 09:12:00;;;;;;;6.82;4.20;;;;;;;;;;5013898;28;20037;-70
2022/06/11 09:14:38;;;;;;;6.00;4.35;;;;;;;;;;5006575;28;20048;-73
2022/06/11 09:17:37;;;;;;;4.93;4.17;;;;;;;;;;5005697;28;20084;-71
2022/06/11 09:20:03;;;;;;;7.28;4.10;;;;;;;;;;5014775;28;20034;-73
2022/06/11 09:22:40;;;;;;;4.45;3.83;;;;;;;;;;5009278;28;20121;-72
2022/06/11 09:25:23;;;;;;;6.00;3.72;;;;;;;;;;5008371;28;20125;-73
2022/06/11 09:27:50;;;;;;;5.97;3.50;;;;;;;;;;5012197;28;20423;-72
2022/06/11 09:30:25;;;;;;;6.28;4.03;;;;;;;;;;5012894;28;20501;-71
2022/06/11 09:32:52;;;;;;;4.50;3.72;;;;;;;;;;5012675;28;20037;-72
2022/06/11 09:35:22;;;;;;;8.82;4.10;;;;;;;;;;5011012;28;20041;-74
2022/06/11 09:38:15;;;;;;;4.32;3.80;;;;;;;;;;5017490;28;20046;-72
2022/06/11 09:40:43;;;;;;;4.35;3.95;;;;;;;;;;5008457;28;20052;-71
2022/06/11 09:43:15;;;;;;;3.90;3.58;;;;;;;;;;5006253;28;20037;-69
2022/06/11 09:45:41;;;;;;;4.90;3.75;;;;;;;;;;5014835;28;20041;-72
2022/06/11 09:48:34;;;;;;;4.18;3.60;;;;;;;;;;5010389;28;21047;-70
2022/06/11 09:51:20;;;;;;;4.05;3.67;;;;;;;;;;5008269;28;20135;-71
2022/06/11 09:54:06;;;;;;;4.38;3.97;;;;;;;;;;5008267;28;20059;-72
2022/06/11 09:57:03;;;;;;;4.43;3.70;;;;;;;;;;5018846;28;20084;-71
2022/06/11 09:59:28;;;;;;;6.13;3.83;;;;;;;;;;5009713;28;20061;-71
2022/06/11 10:02:07;;;;;;;5.15;4.18;;;;;;;;;;5010893;28;20583;-73
2022/06/11 10:04:40;;;;;;;5.30;3.55;;;;;;;;;;5010062;28;20119;-73
2022/06/11 10:07:13;;;;;;;5.85;3.40;;;;;;;;;;5014533;28;20064;-70
2022/06/11 10:09:56;;;;;;;5.15;4.00;;;;;;;;;;5011873;28;20040;-72
2022/06/11 10:12:27;;;;;;;4.50;4.10;;;;;;;;;;5011566;28;21138;-71
2022/06/11 10:15:19;;;;;;;9.57;4.50;;;;;;;;;;5015131;28;20034;-73
2022/06/11 10:18:12;;;;;;;4.18;3.78;;;;;;;;;;5008391;28;20046;-73
2022/06/11 10:20:42;;;;;;;4.03;3.58;;;;;;;;;;5006621;28;20042;-72
2022/06/11 10:23:35;;;;;;;4.68;3.60;;;;;;;;;;5009129;28;20045;-71
2022/06/11 10:26:30;;;;;;;5.28;4.00;;;;;;;;;;5008307;28;20022;-72
2022/06/11 10:29:13;;;;;;;4.55;3.90;;;;;;;;;;5008205;28;20030;-71
2022/06/11 10:31:49;;;;;;;4.72;4.05;;;;;;;;;;5012834;28;20057;-70
2022/06/11 10:34:24;;;;;;;4.40;4.10;;;;;;;;;;5009170;28;20044;-73
2022/06/11 10:37:05;;;;;;;4.72;3.88;;;;;;;;;;5007316;28;20045;-72
2022/06/11 10:39:49;;;;;;;4.20;3.72;;;;;;;;;;5007525;28;20614;-72
2022/06/11 10:42:39;;;;;;;6.10;4.18;;;;;;;;;;5011284;28;20581;-71
2022/06/11 10:45:08;;;;;;;4.78;4.00;;;;;;;;;;5007920;28;20096;-71
2022/06/11 10:47:41;;;;;;;6.07;4.28;;;;;;;;;;5006627;28;20045;-71
2022/06/11 10:50:18;;;;;;;7.20;4.90;;;;;;;;;;5014234;28;20120;-71
2022/06/11 10:53:06;;;;;;;4.88;4.38;;;;;;;;;;5009140;28;20088;-72
2022/06/11 10:55:59;;;;;;;4.57;4.15;;;;;;;;;;5008165;28;20108;-72
2022/06/11 10:58:33;;;;;;;9.60;4.05;;;;;;;;;;5007240;28;20046;-73
2022/06/11 11:01:07;;;;;;;4.60;4.10;;;;;;;;;;5013770;28;20073;-73
2022/06/11 11:03:42;;;;;;;6.05;4.60;;;;;;;;;;5008931;28;20521;-72
2022/06/11 11:06:15;;;;;;;5.13;4.32;;;;;;;;;;5007957;28;20038;-73
2022/06/11 11:08:52;;;;;;;5.55;5.05;;;;;;;;;;5011046;28;20493;-73
2022/06/11 11:11:17;;;;;;;6.13;4.88;;;;;;;;;;5011098;28;20034;-73
2022/06/11 11:13:45;;;;;;;6.65;4.40;;;;;;;;;;5007544;28;20120;-73
2022/06/11 11:16:17;;;;;;;4.87;4.47;;;;;;;;;;5005252;28;20034;-72
2022/06/11 11:19:04;;;;;;;5.10;4.22;;;;;;;;;;5013950;28;20292;-69
2022/06/11 11:21:59;;;;;;;9.13;4.35;;;;;;;;;;5013449;28;20095;-72
2022/06/11 11:24:46;;;;;;;4.65;4.25;;;;;;;;;;5000038;28;20045;-71
2022/06/11 11:27:18;;;;;;;4.85;4.40;;;;;;;;;;5012387;28;20065;-72
2022/06/11 11:30:19;;;;;;;6.10;4.55;;;;;;;;;;5011283;28;20905;-73
2022/06/11 11:32:47;;;;;;;6.40;4.30;;;;;;;;;;5005468;28;20100;-72
2022/06/11 11:35:27;;;;;;;7.95;4.70;;;;;;;;;;5006237;28;20022;-70
2022/06/11 11:37:59;;;;;;;4.68;4.28;;;;;;;;;;5008836;28;20557;-70
2022/06/11 11:40:32;;;;;;;5.20;4.40;;;;;;;;;;5008957;28;20044;-72
2022/06/11 11:43:03;;;;;;;5.00;4.50;;;;;;;;;;5007986;28;20038;-69
2022/06/11 11:45:45;;;;;;;5.18;4.45;;;;;;;;;;5004696;28;20037;-72
2022/06/11 11:48:19;;;;;;;5.68;4.90;;;;;;;;;;5005799;28;20040;-73
2022/06/11 11:50:50;;;;;;;5.13;4.72;;;;;;;;;;5006690;28;21420;-72
2022/06/11 11:53:25;;;;;;;8.25;4.97;;;;;;;;;;5005856;28;20038;-70
2022/06/11 11:55:56;;;;;;;6.20;4.60;;;;;;;;;;5007596;28;20034;-71
2022/06/11 11:58:32;;;;;;;5.25;4.85;;;;;;;;;;5008983;28;20034;-70
2022/06/11 12:01:06;;;;;;;5.05;4.65;;;;;;;;;;5011446;28;20029;-71
2022/06/11 12:03:43;;;;;;;5.32;4.80;;;;;;;;;;5010389;28;20041;-72
2022/06/11 12:06:30;;;;;;;5.50;5.00;;;;;;;;;;5005366;28;20450;-70
2022/06/11 12:08:56;;;;;;;5.30;4.80;;;;;;;;;;5012291;28;20084;-72
2022/06/11 12:11:27;;;;;;;5.22;4.72;;;;;;;;;;5008605;28;20635;-72
2022/06/11 12:14:00;;;;;;;5.40;4.90;;;;;;;;;;5006764;28;20077;-70
2022/06/11 12:16:32;;;;;;;5.22;4.80;;;;;;;;;;5003658;28;20030;-72
2022/06/11 12:19:09;;;;;;;5.35;4.85;;;;;;;;;;5011596;28;20038;-71
2022/06/11 12:21:40;;;;;;;6.23;5.00;;;;;;;;;;5005366;28;20037;-70
2022/06/11 12:24:09;;;;;;;6.20;5.30;;;;;;;;;;5005858;28;20073;-72
2022/06/11 12:26:40;;;;;;;5.22;4.80;;;;;;;;;;5013247;28;20025;-70
2022/06/11 12:29:39;;;;;;;6.18;4.95;;;;;;;;;;5006974;28;20386;-71
2022/06/11 12:32:37;;;;;;;5.22;4.68;;;;;;;;;;5007447;28;20048;-70
2022/06/11 12:35:14;;;;;;;5.25;4.85;;;;;;;;;;4988998;28;20045;-71
2022/06/11 12:37:50;;;;;;;5.38;4.97;;;;;;;;;;4993226;28;20058;-70
2022/06/11 12:40:40;;;;;;;6.03;4.90;;;;;;;;;;4990084;28;20058;-70
2022/06/11 12:43:19;;;;;;;5.82;5.20;;;;;;;;;;4987084;28;20038;-69
2022/06/11 12:46:15;;;;;;;6.22;5.20;;;;;;;;;;4995954;28;20193;-72
2022/06/11 12:48:49;;;;;;;6.85;4.82;;;;;;;;;;4991678;28;20054;-71
2022/06/11 12:51:50;;;;;;;5.53;5.10;;;;;;;;;;4991897;28;20521;-71
2022/06/11 12:54:30;;;;;;;5.45;5.00;;;;;;;;;;4986951;28;20049;-72
2022/06/11 12:57:24;;;;;;;5.65;5.25;;;;;;;;;;4993692;28;20050;-70
2022/06/11 13:00:15;;;;;;;5.85;5.25;;;;;;;;;;4994508;28;20160;-69
2022/06/11 13:02:56;;;;;;;5.95;5.40;;;;;;;;;;4990261;28;20518;-71
2022/06/11 13:06:07;;;;;;;5.40;4.90;;;;;;;;;;4999136;28;20112;-72
2022/06/11 13:08:44;;;;;;;5.47;4.95;;;;;;;;;;4963772;28;20550;-70
2022/06/11 13:11:23;;;;;;;5.47;5.07;;;;;;;;;;5006357;28;20478;-70
2022/06/11 13:14:17;;;;;;;5.63;5.13;;;;;;;;;;5014676;28;20046;-71
2022/06/11 13:16:43;;;;;;;5.30;4.90;;;;;;;;;;5013243;28;20433;-70
2022/06/11 13:19:14;;;;;;;6.85;5.00;;;;;;;;;;5010064;28;20034;-69
2022/06/11 13:22:09;;;;;;;6.63;5.10;;;;;;;;;;5016802;28;20447;-72
2022/06/11 13:24:40;;;;;;;7.60;5.55;;;;;;;;;;5009959;28;20030;-70
2022/06/11 13:27:21;;;;;;;5.90;5.40;;;;;;;;;;5013346;28;20472;-70
2022/06/11 13:29:58;;;;;;;5.30;4.88;;;;;;;;;;5014142;28;20645;-72
2022/06/11 13:32:27;;;;;;;7.70;5.20;;;;;;;;;;5016132;28;20115;-71
2022/06/11 13:35:08;;;;;;;5.80;5.20;;;;;;;;;;5009594;28;20069;-72
2022/06/11 13:37:39;;;;;;;5.53;5.05;;;;;;;;;;5008725;28;20041;-69
2022/06/11 13:40:27;;;;;;;6.03;5.10;;;;;;;;;;5016039;28;20064;-72
2022/06/11 13:43:19;;;;;;;5.10;4.50;;;;;;;;;;5010012;28;20065;-70
2022/06/11 13:45:57;;;;;;;5.15;4.85;;;;;;;;;;4984801;28;20049;-71
2022/06/11 13:48:35;;;;;;;5.50;4.90;;;;;;;;;;5004537;28;20088;-72
2022/06/11 13:51:14;;;;;;;5.25;4.80;;;;;;;;;;5009489;28;20429;-71
2022/06/11 13:57:19;;;;;;;5.70;5.15;;;;;;;;;;5008565;28;20038;-69
2022/06/11 14:00:22;;;;;;;7.32;5.32;;;;;;;;;;5015394;28;20064;-72
2022/06/11 14:03:33;;;;;;;6.10;5.50;;;;;;;;;;5010102;28;20038;-71
2022/06/11 14:06:01;;;;;;;5.90;5.40;;;;;;;;;;5008716;28;20068;-70
2022/06/11 14:08:47;;;;;;;5.40;4.97;;;;;;;;;;5017346;28;20037;-70
2022/06/11 14:11:32;;;;;;;6.13;5.53;;;;;;;;;;5005915;28;20029;-71
2022/06/11 14:13:59;;;;;;;5.93;5.32;;;;;;;;;;5009434;28;20172;-71
2022/06/11 14:16:30;;;;;;;8.68;5.35;;;;;;;;;;5010262;28;20034;-71
2022/06/11 14:18:57;;;;;;;7.43;5.50;;;;;;;;;;5012622;28;20477;-71
2022/06/11 14:21:38;;;;;;;6.97;5.20;;;;;;;;;;5009279;28;20068;-72
2022/06/11 14:24:09;;;;;;;5.20;4.80;;;;;;;;;;5013019;28;20440;-70
2022/06/11 14:26:52;;;;;;;5.00;4.60;;;;;;;;;;5015211;28;20029;-71
2022/06/11 14:29:27;;;;;;;4.88;4.47;;;;;;;;;;5007207;28;20029;-71
2022/06/11 14:32:02;;;;;;;5.13;4.63;;;;;;;;;;5011150;28;20064;-71
2022/06/11 14:34:33;;;;;;;5.32;4.85;;;;;;;;;;5015412;28;20096;-71
2022/06/11 14:37:02;;;;;;;6.15;4.50;;;;;;;;;;5009183;28;20561;-71
2022/06/11 14:39:30;;;;;;;;;;;;;;;;;;5008272;28;20045;-70
2022/06/11 14:42:07;;;;;;;;;;;;;;;;;;5011884;28;19963;-69
2022/06/11 14:44:33;;;;;;;4.90;4.50;;;;;;;;;;5011153;28;19983;-71
2022/06/11 14:47:00;;;;;;;8.20;4.85;;;;;;;;;;5011187;28;20481;-71
2022/06/11 14:49:26;;;;;;;5.80;4.95;;;;;;;;;;5014036;28;20026;-71
2022/06/11 14:52:04;;;;;;;5.40;4.93;;;;;;;;;;5013610;28;20496;-71
2022/06/11 14:54:34;;;;;;;7.07;4.68;;;;;;;;;;5010858;28;20072;-72
2022/06/11 14:57:24;;;;;;;5.50;4.65;;;;;;;;;;5007988;28;20499;-73
2022/06/11 15:00:16;;;;;;;5.97;5.03;;;;;;;;;;5013355;28;20042;-72
2022/06/11 15:03:13;;;;;;;8.02;4.50;;;;;;;;;;5007568;28;20049;-71
2022/06/11 15:06:05;;;;;;;6.43;5.32;;;;;;;;;;5007302;28;20084;-72
2022/06/11 15:08:59;;;;;;;6.88;5.25;;;;;;;;;;5013710;28;20037;-71
2022/06/11 15:11:32;;;;;;;6.57;5.28;;;;;;;;;;5008099;28;20034;-71
2022/06/11 15:14:28;;;;;;;7.47;5.00;;;;;;;;;;5006652;28;20451;-72
2022/06/11 15:17:33;;;;;;;5.72;5.25;;;;;;;;;;5012689;28;20030;-71
2022/06/11 15:20:04;;;;;;;6.00;5.18;;;;;;;;;;4996734;28;20041;-70
2022/06/11 15:22:40;;;;;;;7.55;5.07;;;;;;;;;;5007756;28;20174;-70
2022/06/11 15:25:11;;;;;;;5.50;5.10;;;;;;;;;;5015650;28;20045;-71